首页
METAR-TAF:

METAR-TAF

机场 :

费尔班克斯国际机场

費爾班克斯, 阿拉斯加州, 美国

纬度: 64-48-14N, 经度: 147-52-34W, 海拔: 132米

当前天气观测

该预报发布于18分钟前的03:53 UTC
风速8节,风向西
温度 19°C
湿度 49%
气压 1014 hPa
能見度: 16.1公里
少量云层高于4500英尺
散云层高于6000英尺
多云层高于8500英尺

METAR: PAFA 230353Z 26008KT 10SM FEW045 SCT060 BKN085 19/08 A2993 RMK AO2 SLP141 T01890078

时间: 20:11 (04:11 UTC)

预报

该预报发布于4小时和46分钟前的23:25 UTC
预报有效从23日的 00点(UTC)到 24日的 06点(UTC)
风速11节,风向西转西南,有时为16节阵风
能見度: 10公里
少量云层高于4000英尺
多云层高于5000英尺
多云层高于8000英尺
附近有阵雨
从 23日的 0400点(UTC)
风速7节,风向西转西南
能見度: 10公里
散云层高于6000英尺
多云层高于10000英尺
附近有阵雨
从 23日的 1400点(UTC)
风速5节,风向西转西南
能見度: 10公里
散云层高于6000英尺
散云层高于10000英尺
从 23日的 2200点(UTC)
风速8节,风向西,有时为13节阵风
能見度: 10公里
散云层高于6000英尺
散云层高于10000英尺
多云层高于20000英尺

TAF: PAFA 222325Z 2300/2406 25011G16KT P6SM VCSH FEW040 BKN050 BKN080 FM230400 25007KT P6SM VCSH SCT060 BKN100 FM231400 25005KT P6SM SCT060 SCT100 FM232200 28008G13KT P6SM SCT060 SCT100 BKN200

超过4000个机场的气象观测和天气预报(METAR&TAF报告)。

可查询的气象台以黄色和红色小点在地图上表示。

将鼠标移到小点上方,可查看气象台名称。

然后点击查看天气观测和预报。

如需切换地图:点击带黑十字的绿色按钮放大地图;点击带横线的绿色按钮缩小地图;或者点击绿色箭头查看邻近地区的地图。


METAR-TAF: